createdAt,value
2018-12-15T00:00:59.745Z,-73
2018-12-15T00:01:59.864Z,-73
2018-12-15T00:02:59.749Z,-73
2018-12-15T00:03:59.868Z,-74
2018-12-15T00:04:59.773Z,-75
2018-12-15T00:05:59.872Z,-73
2018-12-15T00:06:59.753Z,-73
2018-12-15T00:07:59.898Z,-73
2018-12-15T00:08:59.751Z,-73
2018-12-15T00:09:59.895Z,-72
2018-12-15T00:10:59.754Z,-74
2018-12-15T00:11:59.869Z,-72
2018-12-15T00:12:59.757Z,-73
2018-12-15T00:13:59.869Z,-72
2018-12-15T00:14:59.781Z,-74
2018-12-15T00:15:59.870Z,-72
2018-12-15T00:17:05.524Z,-73
2018-12-15T00:17:59.870Z,-71
2018-12-15T00:18:59.763Z,-72
2018-12-15T00:19:59.907Z,-72
2018-12-15T00:20:59.763Z,-72
2018-12-15T00:21:59.938Z,-71
2018-12-15T00:22:59.763Z,-73
2018-12-15T00:23:59.878Z,-71
2018-12-15T00:24:59.788Z,-72
2018-12-15T00:25:59.884Z,-70
2018-12-15T00:26:59.767Z,-71
2018-12-15T00:27:59.881Z,-70
2018-12-15T00:28:59.769Z,-71
2018-12-15T00:29:59.908Z,-70
2018-12-15T00:30:59.771Z,-71
2018-12-15T00:31:59.887Z,-70
2018-12-15T00:32:59.772Z,-71
2018-12-15T00:33:59.886Z,-70
2018-12-15T00:34:59.798Z,-71
2018-12-15T00:35:59.887Z,-70
2018-12-15T00:36:59.773Z,-72
2018-12-15T00:37:59.893Z,-70
2018-12-15T00:38:59.781Z,-72
2018-12-15T00:39:59.912Z,-70
2018-12-15T00:40:59.777Z,-72
2018-12-15T00:41:59.895Z,-70
2018-12-15T00:42:59.779Z,-71
2018-12-15T00:43:59.895Z,-70
2018-12-15T00:44:59.806Z,-71
2018-12-15T00:45:59.903Z,-71
2018-12-15T00:46:59.783Z,-71
2018-12-15T00:47:59.901Z,-71
2018-12-15T00:48:59.783Z,-72
2018-12-15T00:49:59.928Z,-71
2018-12-15T00:50:59.785Z,-72
2018-12-15T00:51:59.902Z,-71
2018-12-15T00:52:59.789Z,-71
2018-12-15T00:53:59.906Z,-70
2018-12-15T00:54:59.814Z,-72
2018-12-15T00:55:59.903Z,-71
2018-12-15T00:56:59.789Z,-73
2018-12-15T00:57:59.909Z,-71
2018-12-15T00:58:59.791Z,-75
2018-12-15T00:59:59.936Z,-73
2018-12-15T01:00:59.795Z,-73
2018-12-15T01:01:59.908Z,-73
2018-12-15T01:02:59.794Z,-73
2018-12-15T01:03:59.914Z,-74
2018-12-15T01:04:59.821Z,-74
2018-12-15T01:05:59.978Z,-73
2018-12-15T01:06:59.800Z,-75
2018-12-15T01:07:59.918Z,-74
2018-12-15T01:08:59.798Z,-74
2018-12-15T01:09:59.944Z,-74
2018-12-15T01:10:59.802Z,-74
2018-12-15T01:11:59.915Z,-74
2018-12-15T01:12:59.800Z,-73
2018-12-15T01:13:59.911Z,-73
2018-12-15T01:14:59.849Z,-74
2018-12-15T01:15:59.918Z,-72
2018-12-15T01:16:59.808Z,-73
2018-12-15T01:17:59.962Z,-72
2018-12-15T01:18:59.807Z,-75
2018-12-15T01:19:59.920Z,-73
2018-12-15T01:20:59.834Z,-74
2018-12-15T01:21:59.917Z,-73
2018-12-15T01:22:59.809Z,-73
2018-12-15T01:23:59.924Z,-72
2018-12-15T01:24:59.810Z,-73
2018-12-15T01:25:59.955Z,-72
2018-12-15T01:26:59.815Z,-73
2018-12-15T01:27:59.923Z,-72
2018-12-15T01:28:59.817Z,-72
2018-12-15T01:29:59.935Z,-73
2018-12-15T01:30:59.856Z,-72
2018-12-15T01:31:59.929Z,-72
2018-12-15T01:32:59.817Z,-72
2018-12-15T01:33:59.932Z,-73
2018-12-15T01:34:59.818Z,-72
2018-12-15T01:35:59.964Z,-72
2018-12-15T01:36:59.820Z,-72
2018-12-15T01:37:59.938Z,-72
2018-12-15T01:38:59.823Z,-73
2018-12-15T01:39:59.935Z,-72
2018-12-15T01:40:59.848Z,-73
2018-12-15T01:41:59.940Z,-73
2018-12-15T01:42:59.826Z,-74
2018-12-15T01:43:59.942Z,-72
2018-12-15T01:44:59.828Z,-73
2018-12-15T01:45:59.984Z,-72
2018-12-15T01:46:59.830Z,-74
2018-12-15T01:47:59.946Z,-74
2018-12-15T01:48:59.832Z,-74
2018-12-15T01:49:59.943Z,-74
2018-12-15T01:50:59.835Z,-73
2018-12-15T01:51:59.970Z,-73
2018-12-15T01:52:59.834Z,-75
2018-12-15T01:53:59.953Z,-72
2018-12-15T01:54:59.836Z,-73
2018-12-15T01:55:59.950Z,-72
2018-12-15T01:56:59.861Z,-73
2018-12-15T01:57:59.951Z,-72
2018-12-15T01:58:59.839Z,-73
2018-12-15T01:59:59.957Z,-73
2018-12-15T02:00:59.839Z,-72
2018-12-15T02:01:59.975Z,-71
2018-12-15T02:02:59.843Z,-71
2018-12-15T02:03:59.957Z,-71
2018-12-15T02:04:59.873Z,-72
2018-12-15T02:05:59.984Z,-72
2018-12-15T02:06:59.871Z,-72
2018-12-15T02:07:59.966Z,-73
2018-12-15T02:08:59.845Z,-73
2018-12-15T02:09:59.960Z,-73
2018-12-15T02:10:59.852Z,-73
2018-12-15T02:11:59.987Z,-73
2018-12-15T02:12:59.851Z,-73
2018-12-15T02:13:59.965Z,-73
2018-12-15T02:14:59.850Z,-73
2018-12-15T02:15:59.964Z,-73
2018-12-15T02:16:59.881Z,-73
2018-12-15T02:17:59.968Z,-73
2018-12-15T02:18:59.854Z,-73
2018-12-15T02:19:59.975Z,-73
2018-12-15T02:20:59.856Z,-73
2018-12-15T02:21:59.999Z,-73
2018-12-15T02:22:59.857Z,-73
2018-12-15T02:23:59.968Z,-73
2018-12-15T02:24:59.857Z,-73
2018-12-15T02:25:59.990Z,-73
2018-12-15T02:26:59.904Z,-73
2018-12-15T02:27:59.992Z,-73
2018-12-15T02:28:59.862Z,-73
2018-12-15T02:29:59.973Z,-73
2018-12-15T02:30:59.866Z,-73
2018-12-15T02:32:00.012Z,-72
2018-12-15T02:32:59.863Z,-73
2018-12-15T02:33:59.980Z,-73
2018-12-15T02:34:59.871Z,-73
2018-12-15T02:35:59.990Z,-73
2018-12-15T02:36:59.894Z,-73
2018-12-15T02:37:59.985Z,-73
2018-12-15T02:38:59.875Z,-73
2018-12-15T02:39:59.982Z,-73
2018-12-15T02:40:59.873Z,-73
2018-12-15T02:42:00.018Z,-72
2018-12-15T02:42:59.873Z,-73
2018-12-15T02:43:59.987Z,-72
2018-12-15T02:44:59.877Z,-71
2018-12-15T02:46:01.102Z,-70
2018-12-15T02:46:59.951Z,-72
2018-12-15T02:47:59.992Z,-70
2018-12-15T02:48:59.887Z,-71
2018-12-15T02:50:00.014Z,-70
2018-12-15T02:50:59.883Z,-71
2018-12-15T02:52:00.022Z,-70
2018-12-15T02:52:59.884Z,-71
2018-12-15T02:53:59.999Z,-70
2018-12-15T02:54:59.883Z,-72
2018-12-15T02:56:00.012Z,-71
2018-12-15T02:56:59.909Z,-72
2018-12-15T02:58:00.012Z,-71
2018-12-15T02:58:59.889Z,-72
2018-12-15T02:59:59.997Z,-71
2018-12-15T03:00:59.890Z,-72
2018-12-15T03:02:00.031Z,-71
2018-12-15T03:02:59.894Z,-72
2018-12-15T03:04:00.010Z,-72
2018-12-15T03:04:59.891Z,-73
2018-12-15T03:06:00.007Z,-72
2018-12-15T03:06:59.941Z,-72
2018-12-15T03:08:00.005Z,-73
2018-12-15T03:08:59.894Z,-74
2018-12-15T03:10:00.008Z,-72
2018-12-15T03:10:59.898Z,-72
2018-12-15T03:12:00.007Z,-72
2018-12-15T03:12:59.921Z,-72
2018-12-15T03:14:00.018Z,-71
2018-12-15T03:14:59.898Z,-72
2018-12-15T03:16:00.020Z,-72
2018-12-15T03:16:59.900Z,-72
2018-12-15T03:18:00.035Z,-72
2018-12-15T03:18:59.900Z,-72
2018-12-15T03:20:00.017Z,-72
2018-12-15T03:20:59.904Z,-72
2018-12-15T03:22:00.019Z,-73
2018-12-15T03:22:59.929Z,-73
2018-12-15T03:24:00.018Z,-72
2018-12-15T03:24:59.911Z,-73
2018-12-15T03:26:00.014Z,-73
2018-12-15T03:26:59.907Z,-73
2018-12-15T03:28:00.049Z,-73
2018-12-15T03:28:59.907Z,-73
2018-12-15T03:30:00.021Z,-73
2018-12-15T03:30:59.913Z,-72
2018-12-15T03:32:00.031Z,-73
2018-12-15T03:32:59.941Z,-73
2018-12-15T03:34:00.028Z,-73
2018-12-15T03:34:59.911Z,-73
2018-12-15T03:36:00.033Z,-73
2018-12-15T03:36:59.914Z,-73
2018-12-15T03:38:00.055Z,-73
2018-12-15T03:38:59.919Z,-73
2018-12-15T03:40:00.031Z,-73
2018-12-15T03:40:59.921Z,-74
2018-12-15T03:42:00.035Z,-73
2018-12-15T03:42:59.946Z,-73
2018-12-15T03:44:00.040Z,-73
2018-12-15T03:44:59.924Z,-73
2018-12-15T03:46:00.034Z,-73
2018-12-15T03:46:59.923Z,-72
2018-12-15T03:48:00.056Z,-72
2018-12-15T03:48:59.929Z,-73
2018-12-15T03:50:00.044Z,-71
2018-12-15T03:50:59.928Z,-73
2018-12-15T03:52:00.041Z,-72
2018-12-15T03:52:59.953Z,-72
2018-12-15T03:54:00.040Z,-72
2018-12-15T03:54:59.931Z,-72
2018-12-15T03:56:00.042Z,-72
2018-12-15T03:56:59.931Z,-71
2018-12-15T03:58:00.072Z,-71
2018-12-15T03:58:59.931Z,-72
2018-12-15T04:00:00.047Z,-71
2018-12-15T04:00:59.937Z,-71
2018-12-15T04:02:00.046Z,-72
2018-12-15T04:02:59.958Z,-72
2018-12-15T04:04:00.087Z,-71
2018-12-15T04:04:59.937Z,-71
2018-12-15T04:06:00.057Z,-73
2018-12-15T04:06:59.940Z,-73
2018-12-15T04:08:00.075Z,-73
2018-12-15T04:08:59.940Z,-73
2018-12-15T04:10:00.060Z,-72
2018-12-15T04:10:59.945Z,-72
2018-12-15T04:12:00.062Z,-72
2018-12-15T04:12:59.989Z,-72
2018-12-15T04:14:00.054Z,-72
2018-12-15T04:14:59.944Z,-72
2018-12-15T04:16:00.064Z,-72
2018-12-15T04:16:59.945Z,-72
2018-12-15T04:18:04.072Z,-72
2018-12-15T04:18:59.952Z,-73
2018-12-15T04:20:00.070Z,-72
2018-12-15T04:20:59.951Z,-72
2018-12-15T04:22:00.065Z,-72
2018-12-15T04:22:59.954Z,-72
2018-12-15T04:24:00.086Z,-72
2018-12-15T04:24:59.953Z,-72
2018-12-15T04:26:00.068Z,-72
2018-12-15T04:26:59.958Z,-73
2018-12-15T04:28:00.068Z,-72
2018-12-15T04:28:59.981Z,-72
2018-12-15T04:30:00.075Z,-72
2018-12-15T04:30:59.957Z,-73
2018-12-15T04:32:00.072Z,-73
2018-12-15T04:32:59.960Z,-72
2018-12-15T04:34:00.099Z,-72
2018-12-15T04:34:59.961Z,-72
2018-12-15T04:36:00.077Z,-72
2018-12-15T04:36:59.960Z,-72
2018-12-15T04:38:00.100Z,-72
2018-12-15T04:38:59.989Z,-72
2018-12-15T04:40:00.082Z,-73
2018-12-15T04:40:59.967Z,-73
2018-12-15T04:42:00.080Z,-73
2018-12-15T04:42:59.969Z,-73
2018-12-15T04:44:00.109Z,-72
2018-12-15T04:44:59.974Z,-73
2018-12-15T04:46:00.129Z,-72
2018-12-15T04:46:59.971Z,-73
2018-12-15T04:48:00.085Z,-72
2018-12-15T04:49:00.000Z,-73
2018-12-15T04:50:00.082Z,-73
2018-12-15T04:50:59.972Z,-73
2018-12-15T04:52:00.091Z,-73
2018-12-15T04:52:59.983Z,-73
2018-12-15T04:54:00.113Z,-73
2018-12-15T04:54:59.975Z,-73
2018-12-15T04:56:00.088Z,-73
2018-12-15T04:56:59.985Z,-73
2018-12-15T04:58:00.092Z,-73
2018-12-15T04:59:00.005Z,-73
2018-12-15T05:00:00.107Z,-71
2018-12-15T05:00:59.981Z,-73
2018-12-15T05:02:00.097Z,-72
2018-12-15T05:02:59.984Z,-74
2018-12-15T05:04:00.123Z,-72
2018-12-15T05:04:59.984Z,-72
2018-12-15T05:06:00.102Z,-73
2018-12-15T05:06:59.985Z,-72
2018-12-15T05:08:00.101Z,-72
2018-12-15T05:09:00.014Z,-72
2018-12-15T05:10:00.097Z,-72
2018-12-15T05:10:59.995Z,-71
2018-12-15T05:12:00.110Z,-71
2018-12-15T05:12:59.989Z,-72
2018-12-15T05:14:00.290Z,-72
2018-12-15T05:14:59.991Z,-73
2018-12-15T05:16:00.105Z,-72
2018-12-15T05:16:59.995Z,-73
2018-12-15T05:18:00.113Z,-73
2018-12-15T05:18:59.996Z,-72
2018-12-15T05:20:00.140Z,-73
2018-12-15T05:20:59.995Z,-71
2018-12-15T05:22:00.118Z,-72
2018-12-15T05:22:59.997Z,-72
2018-12-15T05:24:00.115Z,-72
2018-12-15T05:25:00.030Z,-73
2018-12-15T05:26:00.113Z,-73
2018-12-15T05:27:00.003Z,-73
2018-12-15T05:28:00.116Z,-72
2018-12-15T05:29:00.001Z,-73
2018-12-15T05:30:00.143Z,-72
2018-12-15T05:31:00.009Z,-72
2018-12-15T05:32:00.117Z,-72
2018-12-15T05:33:00.008Z,-72
2018-12-15T05:34:00.131Z,-72
2018-12-15T05:35:00.036Z,-72
2018-12-15T05:36:00.130Z,-72
2018-12-15T05:37:00.012Z,-73
2018-12-15T05:38:00.124Z,-72
2018-12-15T05:39:00.009Z,-72
2018-12-15T05:40:00.153Z,-72
2018-12-15T05:41:00.012Z,-72
2018-12-15T05:42:00.126Z,-72
2018-12-15T05:43:00.013Z,-72
2018-12-15T05:44:00.132Z,-72
2018-12-15T05:45:00.039Z,-72
2018-12-15T05:46:00.131Z,-72
2018-12-15T05:47:00.020Z,-72
2018-12-15T05:48:00.139Z,-72
2018-12-15T05:49:00.020Z,-72
2018-12-15T05:50:00.158Z,-72
2018-12-15T05:51:00.022Z,-72
2018-12-15T05:52:00.133Z,-71
2018-12-15T05:53:00.024Z,-71
2018-12-15T05:54:00.145Z,-71
2018-12-15T05:55:00.068Z,-72
2018-12-15T05:56:00.143Z,-72
2018-12-15T05:57:00.026Z,-72
2018-12-15T05:58:00.145Z,-72
2018-12-15T05:59:00.027Z,-72
2018-12-15T06:00:00.169Z,-72
2018-12-15T06:01:00.032Z,-72
2018-12-15T06:02:00.144Z,-72
2018-12-15T06:03:00.032Z,-72
2018-12-15T06:04:00.151Z,-72
2018-12-15T06:05:00.057Z,-72
2018-12-15T06:06:00.151Z,-71
2018-12-15T06:07:00.032Z,-72
2018-12-15T06:08:00.148Z,-71
2018-12-15T06:09:00.038Z,-72
2018-12-15T06:10:00.197Z,-72
2018-12-15T06:11:00.039Z,-72
2018-12-15T06:12:00.150Z,-72
2018-12-15T06:13:00.041Z,-71
2018-12-15T06:14:00.155Z,-72
2018-12-15T06:15:00.041Z,-72
2018-12-15T06:16:00.182Z,-72
2018-12-15T06:17:00.041Z,-72
2018-12-15T06:18:00.159Z,-72
2018-12-15T06:19:00.041Z,-72
2018-12-15T06:20:00.153Z,-72
2018-12-15T06:21:00.074Z,-72
2018-12-15T06:22:00.161Z,-72
2018-12-15T06:23:00.047Z,-72
2018-12-15T06:24:00.157Z,-71
2018-12-15T06:25:00.051Z,-72
2018-12-15T06:26:00.190Z,-72
2018-12-15T06:27:00.052Z,-72
2018-12-15T06:28:00.341Z,-72
2018-12-15T06:29:00.051Z,-72
2018-12-15T06:30:00.169Z,-72
2018-12-15T06:31:00.077Z,-73
2018-12-15T06:32:00.168Z,-73
2018-12-15T06:33:00.057Z,-73
2018-12-15T06:34:00.174Z,-73
2018-12-15T06:35:00.055Z,-74
2018-12-15T06:36:00.199Z,-72
2018-12-15T06:37:00.059Z,-72
2018-12-15T06:38:00.174Z,-71
2018-12-15T06:39:00.059Z,-71
2018-12-15T06:40:00.241Z,-71
2018-12-15T06:41:00.085Z,-71
2018-12-15T06:42:00.169Z,-71
2018-12-15T06:43:00.063Z,-71
2018-12-15T06:44:00.177Z,-70
2018-12-15T06:45:00.164Z,-71
2018-12-15T06:46:00.204Z,-71
2018-12-15T06:47:00.067Z,-71
2018-12-15T06:48:00.178Z,-70
2018-12-15T06:49:00.064Z,-71
2018-12-15T06:50:00.183Z,-70
2018-12-15T06:51:00.157Z,-71
2018-12-15T06:52:00.185Z,-70
2018-12-15T06:53:00.069Z,-71
2018-12-15T06:54:00.184Z,-70
2018-12-15T06:55:00.073Z,-71
2018-12-15T06:56:00.217Z,-70
2018-12-15T06:57:00.072Z,-71
2018-12-15T06:58:00.187Z,-72
2018-12-15T06:59:00.073Z,-71
2018-12-15T07:00:00.189Z,-71
2018-12-15T07:01:00.100Z,-71
2018-12-15T07:02:00.189Z,-71
2018-12-15T07:03:00.075Z,-71
2018-12-15T07:04:00.195Z,-70
2018-12-15T07:05:00.080Z,-71
2018-12-15T07:06:00.234Z,-71
2018-12-15T07:07:00.083Z,-70
2018-12-15T07:08:00.199Z,-71
2018-12-15T07:09:00.086Z,-71
2018-12-15T07:10:00.197Z,-70
2018-12-15T07:11:00.109Z,-71
2018-12-15T07:12:00.201Z,-72
2018-12-15T07:13:00.086Z,-71
2018-12-15T07:14:00.309Z,-71
2018-12-15T07:15:00.088Z,-72
2018-12-15T07:16:00.228Z,-71
2018-12-15T07:17:00.088Z,-71
2018-12-15T07:18:00.203Z,-71
2018-12-15T07:19:00.100Z,-71
2018-12-15T07:20:00.257Z,-71
2018-12-15T07:21:00.125Z,-71
2018-12-15T07:22:00.207Z,-72
2018-12-15T07:23:00.093Z,-72
2018-12-15T07:24:00.206Z,-72
2018-12-15T07:25:00.098Z,-72
2018-12-15T07:26:00.207Z,-72
2018-12-15T07:27:00.120Z,-72
2018-12-15T07:28:00.209Z,-72
2018-12-15T07:29:00.098Z,-73
2018-12-15T07:30:00.218Z,-72
2018-12-15T07:31:00.100Z,-71
2018-12-15T07:32:00.242Z,-71
2018-12-15T07:33:00.101Z,-72
2018-12-15T07:34:00.218Z,-71
2018-12-15T07:35:01.020Z,-71
2018-12-15T07:36:00.219Z,-71
2018-12-15T07:37:00.132Z,-72
2018-12-15T07:38:00.217Z,-72
2018-12-15T07:39:00.106Z,-71
2018-12-15T07:40:00.222Z,-72
2018-12-15T07:41:00.109Z,-72
2018-12-15T07:42:00.245Z,-72
2018-12-15T07:43:00.109Z,-71
2018-12-15T07:44:00.218Z,-70
2018-12-15T07:45:00.110Z,-73
2018-12-15T07:46:01.157Z,-70
2018-12-15T07:47:00.139Z,-71
2018-12-15T07:48:00.226Z,-70
2018-12-15T07:49:00.114Z,-70
2018-12-15T07:50:00.228Z,-70
2018-12-15T07:51:00.117Z,-70
2018-12-15T07:52:00.254Z,-70
2018-12-15T07:53:00.145Z,-69
2018-12-15T07:54:00.239Z,-70
2018-12-15T07:55:00.116Z,-69
2018-12-15T07:56:00.227Z,-69
2018-12-15T07:57:00.146Z,-70
2018-12-15T07:58:00.234Z,-70
2018-12-15T07:59:00.123Z,-69
2018-12-15T08:00:00.234Z,-69
2018-12-15T08:01:00.122Z,-69
2018-12-15T08:02:00.266Z,-69
2018-12-15T08:03:00.125Z,-69
2018-12-15T08:04:00.244Z,-69
2018-12-15T08:05:00.126Z,-69
2018-12-15T08:06:00.240Z,-69
2018-12-15T08:07:00.154Z,-69
2018-12-15T08:08:00.240Z,-69
2018-12-15T08:09:00.127Z,-69
2018-12-15T08:10:00.240Z,-69
2018-12-15T08:11:00.131Z,-69
2018-12-15T08:12:00.269Z,-70
2018-12-15T08:13:00.142Z,-69
2018-12-15T08:14:00.304Z,-69
2018-12-15T08:15:00.133Z,-69
2018-12-15T08:16:00.244Z,-69
2018-12-15T08:17:00.172Z,-69
2018-12-15T08:18:00.456Z,-69
2018-12-15T08:19:00.139Z,-69
2018-12-15T08:20:00.246Z,-69
2018-12-15T08:21:00.136Z,-69
2018-12-15T08:22:00.254Z,-69
2018-12-15T08:23:00.164Z,-69
2018-12-15T08:24:00.255Z,-69
2018-12-15T08:25:00.143Z,-69
2018-12-15T08:26:00.256Z,-69
2018-12-15T08:27:00.141Z,-69
2018-12-15T08:28:00.279Z,-70
2018-12-15T08:29:00.145Z,-69
2018-12-15T08:30:00.258Z,-69
2018-12-15T08:31:00.148Z,-69
2018-12-15T08:32:00.264Z,-69
2018-12-15T08:33:00.172Z,-70
2018-12-15T08:34:00.262Z,-69
2018-12-15T08:35:00.150Z,-69
2018-12-15T08:36:00.263Z,-69
2018-12-15T08:37:00.151Z,-70
2018-12-15T08:38:00.291Z,-69
2018-12-15T08:39:00.153Z,-69
2018-12-15T08:40:00.263Z,-69
2018-12-15T08:41:00.152Z,-70
2018-12-15T08:42:00.268Z,-69
2018-12-15T08:43:00.181Z,-69
2018-12-15T08:44:00.282Z,-69
2018-12-15T08:45:00.158Z,-70
2018-12-15T08:46:00.272Z,-69
2018-12-15T08:47:00.157Z,-69
2018-12-15T08:48:00.306Z,-70
2018-12-15T08:49:04.570Z,-70
2018-12-15T08:50:00.277Z,-69
2018-12-15T08:51:00.162Z,-69
2018-12-15T08:52:00.274Z,-69
2018-12-15T08:53:00.191Z,-69
2018-12-15T08:54:00.280Z,-69
2018-12-15T08:55:00.165Z,-69
2018-12-15T08:56:00.271Z,-69
2018-12-15T08:57:00.165Z,-70
2018-12-15T08:58:00.308Z,-70
2018-12-15T08:59:00.168Z,-70
2018-12-15T09:00:00.287Z,-69
2018-12-15T09:01:00.320Z,-69
2018-12-15T09:02:00.288Z,-71
2018-12-15T09:03:00.194Z,-70
2018-12-15T09:04:00.286Z,-69
2018-12-15T09:05:00.173Z,-70
2018-12-15T09:06:00.288Z,-69
2018-12-15T09:07:00.178Z,-69
2018-12-15T09:08:00.313Z,-69
2018-12-15T09:09:00.179Z,-69
2018-12-15T09:10:00.297Z,-69
2018-12-15T09:11:00.177Z,-69
2018-12-15T09:12:00.291Z,-69
2018-12-15T09:13:00.220Z,-70
2018-12-15T09:14:00.289Z,-69
2018-12-15T09:15:00.178Z,-70
2018-12-15T09:16:00.290Z,-69
2018-12-15T09:17:00.180Z,-69
2018-12-15T09:18:00.298Z,-70
2018-12-15T09:19:00.206Z,-70
2018-12-15T09:20:00.300Z,-69
2018-12-15T09:21:00.186Z,-69
2018-12-15T09:22:00.293Z,-69
2018-12-15T09:23:00.185Z,-69
2018-12-15T09:24:00.326Z,-69
2018-12-15T09:25:00.188Z,-69
2018-12-15T09:26:00.305Z,-69
2018-12-15T09:27:00.191Z,-70
2018-12-15T09:28:00.323Z,-69
2018-12-15T09:29:00.217Z,-69
2018-12-15T09:30:00.314Z,-69
2018-12-15T09:31:00.194Z,-69
2018-12-15T09:32:00.314Z,-69
2018-12-15T09:33:00.196Z,-70
2018-12-15T09:34:00.334Z,-69
2018-12-15T09:35:00.194Z,-69
2018-12-15T09:36:00.340Z,-69
2018-12-15T09:37:00.199Z,-69
2018-12-15T09:38:00.308Z,-69
2018-12-15T09:39:00.230Z,-69
2018-12-15T09:40:00.311Z,-69
2018-12-15T09:41:00.199Z,-69
2018-12-15T09:42:00.343Z,-70
2018-12-15T09:43:00.202Z,-69
2018-12-15T09:44:00.335Z,-68
2018-12-15T09:45:00.204Z,-69
2018-12-15T09:46:00.311Z,-69
2018-12-15T09:47:00.209Z,-69
2018-12-15T09:48:00.320Z,-69
2018-12-15T09:49:00.231Z,-69
2018-12-15T09:50:00.317Z,-69
2018-12-15T09:51:00.209Z,-69
2018-12-15T09:52:00.321Z,-69
2018-12-15T09:53:00.210Z,-68
2018-12-15T09:54:00.351Z,-69
2018-12-15T09:55:00.211Z,-69
2018-12-15T09:56:00.323Z,-69
2018-12-15T09:57:00.210Z,-69
2018-12-15T09:58:00.324Z,-68
2018-12-15T09:59:00.239Z,-69
2018-12-15T10:00:00.329Z,-68
2018-12-15T10:01:00.216Z,-69
2018-12-15T10:02:00.328Z,-69
2018-12-15T10:03:00.217Z,-69
2018-12-15T10:04:00.361Z,-69
2018-12-15T10:05:00.218Z,-69
2018-12-15T10:06:00.332Z,-68
2018-12-15T10:07:00.220Z,-69
2018-12-15T10:08:01.141Z,-69
2018-12-15T10:09:00.248Z,-69
2018-12-15T10:10:00.333Z,-69
2018-12-15T10:11:00.221Z,-70
2018-12-15T10:12:00.335Z,-69
2018-12-15T10:13:00.224Z,-69
2018-12-15T10:14:00.388Z,-68
2018-12-15T10:15:00.226Z,-69
2018-12-15T10:16:00.337Z,-69
2018-12-15T10:17:00.229Z,-70
2018-12-15T10:18:00.395Z,-69
2018-12-15T10:19:00.232Z,-69
2018-12-15T10:20:00.365Z,-68
2018-12-15T10:21:00.231Z,-69
2018-12-15T10:22:00.344Z,-69
2018-12-15T10:23:00.233Z,-69
2018-12-15T10:24:00.355Z,-68
2018-12-15T10:25:00.257Z,-69
2018-12-15T10:26:00.354Z,-69
2018-12-15T10:27:00.237Z,-70
2018-12-15T10:28:00.348Z,-69
2018-12-15T10:29:00.240Z,-69
2018-12-15T10:30:00.374Z,-69
2018-12-15T10:31:00.240Z,-69
2018-12-15T10:32:00.356Z,-68
2018-12-15T10:33:00.242Z,-69
2018-12-15T10:34:00.359Z,-69
2018-12-15T10:35:00.649Z,-68
2018-12-15T10:36:00.362Z,-68
2018-12-15T10:37:00.245Z,-70
2018-12-15T10:38:00.358Z,-69
2018-12-15T10:39:00.247Z,-69
2018-12-15T10:40:00.387Z,-69
2018-12-15T10:41:00.288Z,-69
2018-12-15T10:42:00.362Z,-68
2018-12-15T10:43:00.249Z,-69
2018-12-15T10:44:00.363Z,-68
2018-12-15T10:45:00.278Z,-69
2018-12-15T10:46:00.392Z,-69
2018-12-15T10:47:00.295Z,-69
2018-12-15T10:48:00.364Z,-69
2018-12-15T10:49:00.251Z,-69
2018-12-15T10:50:00.717Z,-69
2018-12-15T10:51:00.253Z,-69
2018-12-15T10:52:00.374Z,-68
2018-12-15T10:53:00.257Z,-69
2018-12-15T10:54:00.369Z,-70
2018-12-15T10:55:00.316Z,-69
2018-12-15T10:56:00.369Z,-68
2018-12-15T10:57:00.260Z,-69
2018-12-15T10:58:00.374Z,-69
2018-12-15T10:59:00.281Z,-69
2018-12-15T11:00:00.372Z,-69
2018-12-15T11:01:00.286Z,-69
2018-12-15T11:02:00.378Z,-70
2018-12-15T11:03:00.266Z,-70
2018-12-15T11:04:01.051Z,-68
2018-12-15T11:05:00.263Z,-69
2018-12-15T11:06:00.403Z,-68
2018-12-15T11:07:00.267Z,-70
2018-12-15T11:08:00.400Z,-69
2018-12-15T11:09:00.270Z,-69
2018-12-15T11:10:00.415Z,-69
2018-12-15T11:11:00.298Z,-69
2018-12-15T11:12:00.925Z,-68
2018-12-15T11:13:00.273Z,-71
2018-12-15T11:14:00.382Z,-69
2018-12-15T11:15:00.272Z,-70
2018-12-15T11:16:00.409Z,-69
2018-12-15T11:17:00.273Z,-68
2018-12-15T11:18:00.393Z,-68
2018-12-15T11:19:00.274Z,-69
2018-12-15T11:20:00.575Z,-69
2018-12-15T11:21:00.673Z,-69
2018-12-15T11:22:00.420Z,-69
2018-12-15T11:23:00.279Z,-69
2018-12-15T11:24:00.390Z,-69
2018-12-15T11:25:00.281Z,-69
2018-12-15T11:26:00.418Z,-69
2018-12-15T11:27:00.281Z,-69
2018-12-15T11:28:00.394Z,-69
2018-12-15T11:29:00.288Z,-69
2018-12-15T11:30:00.402Z,-69
2018-12-15T11:31:00.311Z,-68
2018-12-15T11:32:00.398Z,-69
2018-12-15T11:33:00.289Z,-68
2018-12-15T11:34:00.401Z,-69
2018-12-15T11:35:00.289Z,-68
2018-12-15T11:36:00.436Z,-69
2018-12-15T11:37:00.293Z,-68
2018-12-15T11:38:00.406Z,-69
2018-12-15T11:39:00.293Z,-69
2018-12-15T11:40:00.408Z,-69
2018-12-15T11:41:00.317Z,-69
2018-12-15T11:42:00.429Z,-69
2018-12-15T11:43:00.297Z,-69
2018-12-15T11:44:00.408Z,-69
2018-12-15T11:45:00.299Z,-69
2018-12-15T11:46:00.434Z,-68
2018-12-15T11:47:00.297Z,-69
2018-12-15T11:48:00.418Z,-69
2018-12-15T11:49:00.301Z,-69
2018-12-15T11:50:00.411Z,-69
2018-12-15T11:51:00.325Z,-69
2018-12-15T11:52:00.419Z,-68
2018-12-15T11:53:00.301Z,-70
2018-12-15T11:54:00.421Z,-68
2018-12-15T11:55:00.306Z,-69
2018-12-15T11:56:00.481Z,-68
2018-12-15T11:57:00.306Z,-69
2018-12-15T11:58:00.426Z,-69
2018-12-15T11:59:00.311Z,-69
2018-12-15T12:00:00.420Z,-69
2018-12-15T12:01:00.312Z,-68
2018-12-15T12:02:00.453Z,-69
2018-12-15T12:03:00.310Z,-69
2018-12-15T12:04:00.428Z,-69
2018-12-15T12:05:00.311Z,-69
2018-12-15T12:06:00.427Z,-68
2018-12-15T12:07:00.337Z,-69
2018-12-15T12:08:00.427Z,-69
2018-12-15T12:09:00.320Z,-69
2018-12-15T12:10:00.426Z,-69
2018-12-15T12:11:00.319Z,-70
2018-12-15T12:12:00.450Z,-69
2018-12-15T12:13:00.320Z,-69
2018-12-15T12:14:00.773Z,-68
2018-12-15T12:15:00.318Z,-69
2018-12-15T12:16:00.429Z,-69
2018-12-15T12:17:00.346Z,-69
2018-12-15T12:18:00.433Z,-70
2018-12-15T12:19:00.322Z,-68
2018-12-15T12:20:00.448Z,-69
2018-12-15T12:21:00.323Z,-69
2018-12-15T12:22:00.465Z,-69
2018-12-15T12:23:00.326Z,-68
2018-12-15T12:24:00.443Z,-69
2018-12-15T12:25:00.331Z,-69
2018-12-15T12:26:00.446Z,-69
2018-12-15T12:27:00.357Z,-69
2018-12-15T12:28:00.437Z,-69
2018-12-15T12:29:00.335Z,-69
2018-12-15T12:30:00.447Z,-69
2018-12-15T12:31:00.334Z,-69
2018-12-15T12:32:00.475Z,-69
2018-12-15T12:33:00.335Z,-69
2018-12-15T12:34:00.456Z,-69
2018-12-15T12:35:00.358Z,-69
2018-12-15T12:36:00.453Z,-68
2018-12-15T12:37:00.362Z,-69
2018-12-15T12:38:00.453Z,-69
2018-12-15T12:39:00.346Z,-69
2018-12-15T12:40:00.451Z,-68
2018-12-15T12:41:00.339Z,-69
2018-12-15T12:42:00.486Z,-69
2018-12-15T12:43:00.339Z,-70
2018-12-15T12:44:00.456Z,-69
2018-12-15T12:45:00.347Z,-69
2018-12-15T12:46:00.457Z,-69
2018-12-15T12:47:00.368Z,-69
2018-12-15T12:48:00.457Z,-69
2018-12-15T12:49:00.347Z,-69
2018-12-15T12:50:00.467Z,-69
2018-12-15T12:51:00.346Z,-69
2018-12-15T12:52:00.488Z,-69
2018-12-15T12:53:00.351Z,-69
2018-12-15T12:54:00.461Z,-69
2018-12-15T12:55:00.352Z,-69
2018-12-15T12:56:00.467Z,-69
2018-12-15T12:57:00.378Z,-69
2018-12-15T12:58:00.466Z,-69
2018-12-15T12:59:00.359Z,-69
2018-12-15T13:00:00.473Z,-69
2018-12-15T13:01:00.356Z,-69
2018-12-15T13:02:00.508Z,-69
2018-12-15T13:03:00.357Z,-69
2018-12-15T13:04:00.474Z,-69
2018-12-15T13:05:00.358Z,-69
2018-12-15T13:06:00.469Z,-69
2018-12-15T13:07:00.384Z,-70
2018-12-15T13:08:00.477Z,-69
2018-12-15T13:09:00.366Z,-71
2018-12-15T13:10:00.472Z,-69
2018-12-15T13:11:00.368Z,-69
2018-12-15T13:12:00.504Z,-69
2018-12-15T13:13:00.366Z,-71
2018-12-15T13:14:00.478Z,-69
2018-12-15T13:15:00.369Z,-69
2018-12-15T13:16:00.481Z,-69
2018-12-15T13:17:00.394Z,-69
2018-12-15T13:18:00.480Z,-69
2018-12-15T13:19:00.370Z,-70
2018-12-15T13:20:04.021Z,-69
2018-12-15T13:21:00.371Z,-69
2018-12-15T13:22:00.510Z,-68
2018-12-15T13:23:00.372Z,-70
2018-12-15T13:24:00.485Z,-69
2018-12-15T13:25:00.374Z,-69
2018-12-15T13:26:00.489Z,-69
2018-12-15T13:27:00.417Z,-69
2018-12-15T13:28:00.487Z,-69
2018-12-15T13:29:00.379Z,-69
2018-12-15T13:30:00.489Z,-69
2018-12-15T13:31:00.383Z,-69
2018-12-15T13:32:00.493Z,-69
2018-12-15T13:33:00.406Z,-69
2018-12-15T13:34:00.494Z,-69
2018-12-15T13:35:00.386Z,-69
2018-12-15T13:36:00.497Z,-69
2018-12-15T13:37:00.384Z,-69
2018-12-15T13:38:00.520Z,-69
2018-12-15T13:39:00.386Z,-69
2018-12-15T13:40:00.502Z,-69
2018-12-15T13:41:00.390Z,-69
2018-12-15T13:42:00.502Z,-69
2018-12-15T13:43:00.413Z,-70
2018-12-15T13:44:00.505Z,-69
2018-12-15T13:45:00.391Z,-69
2018-12-15T13:46:00.504Z,-69
2018-12-15T13:47:00.394Z,-69